sensor_id;sensor_type;location;lat;lon;timestamp;P1;durP1;ratioP1;P2;durP2;ratioP2
22308;SDS011;11322;50.858;-1.778;2024-01-25T00:00:33;36.35;;;9.1;;
22308;SDS011;11322;50.858;-1.778;2024-01-25T00:05:33;31.7;;;7.5;;
22308;SDS011;11322;50.858;-1.778;2024-01-25T00:10:33;33.6;;;7.95;;
22308;SDS011;11322;50.858;-1.778;2024-01-25T00:15:33;42.4;;;8.0;;
22308;SDS011;11322;50.858;-1.778;2024-01-25T00:20:33;47.25;;;7.55;;
22308;SDS011;11322;50.858;-1.778;2024-01-25T00:25:33;46.4;;;9.85;;
22308;SDS011;11322;50.858;-1.778;2024-01-25T00:30:33;32.1;;;7.65;;
22308;SDS011;11322;50.858;-1.778;2024-01-25T00:35:33;38.35;;;6.25;;
22308;SDS011;11322;50.858;-1.778;2024-01-25T00:40:33;47.6;;;7.4;;
22308;SDS011;11322;50.858;-1.778;2024-01-25T00:45:33;43.3;;;7.45;;
22308;SDS011;11322;50.858;-1.778;2024-01-25T00:50:33;53.4;;;7.7;;
22308;SDS011;11322;50.858;-1.778;2024-01-25T00:55:33;41.6;;;9.35;;
22308;SDS011;11322;50.858;-1.778;2024-01-25T01:00:33;39.75;;;8.15;;
22308;SDS011;11322;50.858;-1.778;2024-01-25T01:05:33;32.35;;;6.0;;
22308;SDS011;11322;50.858;-1.778;2024-01-25T01:10:33;39.85;;;6.8;;
22308;SDS011;11322;50.858;-1.778;2024-01-25T01:15:33;39.1;;;6.35;;
22308;SDS011;11322;50.858;-1.778;2024-01-25T01:20:33;32.0;;;5.3;;
22308;SDS011;11322;50.858;-1.778;2024-01-25T01:25:33;28.05;;;6.2;;
22308;SDS011;11322;50.858;-1.778;2024-01-25T01:30:33;37.65;;;6.0;;
22308;SDS011;11322;50.858;-1.778;2024-01-25T01:35:33;36.55;;;5.85;;
22308;SDS011;11322;50.858;-1.778;2024-01-25T01:40:33;58.85;;;8.05;;
22308;SDS011;11322;50.858;-1.778;2024-01-25T01:45:33;56.0;;;7.35;;
22308;SDS011;11322;50.858;-1.778;2024-01-25T01:50:33;48.75;;;7.05;;
22308;SDS011;11322;50.858;-1.778;2024-01-25T01:55:33;77.0;;;6.5;;
22308;SDS011;11322;50.858;-1.778;2024-01-25T02:00:33;68.4;;;7.9;;
22308;SDS011;11322;50.858;-1.778;2024-01-25T02:05:34;41.15;;;4.65;;
22308;SDS011;11322;50.858;-1.778;2024-01-25T02:10:33;52.95;;;5.95;;
22308;SDS011;11322;50.858;-1.778;2024-01-25T02:15:33;45.7;;;5.2;;
22308;SDS011;11322;50.858;-1.778;2024-01-25T02:20:33;25.65;;;4.45;;
22308;SDS011;11322;50.858;-1.778;2024-01-25T02:25:33;43.35;;;4.6;;
22308;SDS011;11322;50.858;-1.778;2024-01-25T02:30:33;26.35;;;5.85;;
22308;SDS011;11322;50.858;-1.778;2024-01-25T02:35:33;22.6;;;3.2;;
22308;SDS011;11322;50.858;-1.778;2024-01-25T02:40:33;19.6;;;3.5;;
22308;SDS011;11322;50.858;-1.778;2024-01-25T02:45:33;12.65;;;2.25;;
22308;SDS011;11322;50.858;-1.778;2024-01-25T02:50:33;17.05;;;3.95;;
22308;SDS011;11322;50.858;-1.778;2024-01-25T02:55:33;12.85;;;2.95;;
22308;SDS011;11322;50.858;-1.778;2024-01-25T03:00:33;13.2;;;2.2;;
22308;SDS011;11322;50.858;-1.778;2024-01-25T03:05:33;7.35;;;2.45;;
22308;SDS011;11322;50.858;-1.778;2024-01-25T03:10:33;15.95;;;3.25;;
22308;SDS011;11322;50.858;-1.778;2024-01-25T03:15:33;13.6;;;2.55;;
22308;SDS011;11322;50.858;-1.778;2024-01-25T03:20:33;11.2;;;2.4;;
22308;SDS011;11322;50.858;-1.778;2024-01-25T03:25:33;17.55;;;3.65;;
22308;SDS011;11322;50.858;-1.778;2024-01-25T03:30:33;13.85;;;2.75;;
22308;SDS011;11322;50.858;-1.778;2024-01-25T03:35:33;12.9;;;1.8;;
22308;SDS011;11322;50.858;-1.778;2024-01-25T03:40:33;16.2;;;3.4;;
22308;SDS011;11322;50.858;-1.778;2024-01-25T03:45:33;21.4;;;2.2;;
22308;SDS011;11322;50.858;-1.778;2024-01-25T03:50:33;6.35;;;1.5;;
22308;SDS011;11322;50.858;-1.778;2024-01-25T03:55:33;11.7;;;2.85;;
22308;SDS011;11322;50.858;-1.778;2024-01-25T04:00:33;12.0;;;1.9;;
22308;SDS011;11322;50.858;-1.778;2024-01-25T04:05:33;13.5;;;2.25;;
22308;SDS011;11322;50.858;-1.778;2024-01-25T04:10:33;14.95;;;1.8;;
22308;SDS011;11322;50.858;-1.778;2024-01-25T04:15:33;7.85;;;1.9;;
22308;SDS011;11322;50.858;-1.778;2024-01-25T04:20:33;7.35;;;1.9;;
22308;SDS011;11322;50.858;-1.778;2024-01-25T04:25:33;5.8;;;1.45;;
22308;SDS011;11322;50.858;-1.778;2024-01-25T04:30:33;2.0;;;1.2;;
22308;SDS011;11322;50.858;-1.778;2024-01-25T04:35:33;4.9;;;1.1;;
22308;SDS011;11322;50.858;-1.778;2024-01-25T04:40:33;2.8;;;1.3;;
22308;SDS011;11322;50.858;-1.778;2024-01-25T04:45:33;2.8;;;1.25;;
22308;SDS011;11322;50.858;-1.778;2024-01-25T04:50:33;5.4;;;1.5;;
22308;SDS011;11322;50.858;-1.778;2024-01-25T04:55:33;3.2;;;1.5;;
22308;SDS011;11322;50.858;-1.778;2024-01-25T05:00:33;5.0;;;1.4;;
22308;SDS011;11322;50.858;-1.778;2024-01-25T05:05:33;4.7;;;1.2;;
22308;SDS011;11322;50.858;-1.778;2024-01-25T05:10:33;9.55;;;1.45;;
22308;SDS011;11322;50.858;-1.778;2024-01-25T05:15:34;10.9;;;1.9;;
22308;SDS011;11322;50.858;-1.778;2024-01-25T05:20:33;10.75;;;1.6;;
22308;SDS011;11322;50.858;-1.778;2024-01-25T05:25:33;4.85;;;1.35;;
22308;SDS011;11322;50.858;-1.778;2024-01-25T05:30:33;8.3;;;1.75;;
22308;SDS011;11322;50.858;-1.778;2024-01-25T05:35:33;7.35;;;1.8;;
22308;SDS011;11322;50.858;-1.778;2024-01-25T05:40:33;9.1;;;1.85;;
22308;SDS011;11322;50.858;-1.778;2024-01-25T05:45:33;7.75;;;2.15;;
22308;SDS011;11322;50.858;-1.778;2024-01-25T05:50:33;4.0;;;0.95;;
22308;SDS011;11322;50.858;-1.778;2024-01-25T05:55:33;6.85;;;2.3;;
22308;SDS011;11322;50.858;-1.778;2024-01-25T06:00:33;9.75;;;2.15;;
22308;SDS011;11322;50.858;-1.778;2024-01-25T06:05:33;9.4;;;3.15;;
22308;SDS011;11322;50.858;-1.778;2024-01-25T06:10:33;8.6;;;3.4;;
22308;SDS011;11322;50.858;-1.778;2024-01-25T06:15:33;9.0;;;3.55;;
22308;SDS011;11322;50.858;-1.778;2024-01-25T06:20:33;13.3;;;3.3;;
22308;SDS011;11322;50.858;-1.778;2024-01-25T06:25:33;16.5;;;3.7;;
22308;SDS011;11322;50.858;-1.778;2024-01-25T06:30:33;12.7;;;3.05;;
22308;SDS011;11322;50.858;-1.778;2024-01-25T06:35:33;23.6;;;5.1;;
22308;SDS011;11322;50.858;-1.778;2024-01-25T06:40:33;10.35;;;2.8;;
22308;SDS011;11322;50.858;-1.778;2024-01-25T06:45:33;11.85;;;3.35;;
22308;SDS011;11322;50.858;-1.778;2024-01-25T06:50:33;16.45;;;4.55;;
22308;SDS011;11322;50.858;-1.778;2024-01-25T06:55:33;20.0;;;3.3;;
22308;SDS011;11322;50.858;-1.778;2024-01-25T07:00:33;18.35;;;2.55;;
22308;SDS011;11322;50.858;-1.778;2024-01-25T07:05:33;13.6;;;2.6;;
22308;SDS011;11322;50.858;-1.778;2024-01-25T07:10:33;15.55;;;2.65;;
22308;SDS011;11322;50.858;-1.778;2024-01-25T07:15:33;27.95;;;2.65;;
22308;SDS011;11322;50.858;-1.778;2024-01-25T07:20:33;28.05;;;3.25;;
22308;SDS011;11322;50.858;-1.778;2024-01-25T07:25:33;26.7;;;3.45;;
22308;SDS011;11322;50.858;-1.778;2024-01-25T07:30:33;19.15;;;3.0;;
22308;SDS011;11322;50.858;-1.778;2024-01-25T07:35:33;18.2;;;3.3;;
22308;SDS011;11322;50.858;-1.778;2024-01-25T07:40:33;18.0;;;2.05;;
22308;SDS011;11322;50.858;-1.778;2024-01-25T07:45:33;32.65;;;3.25;;
22308;SDS011;11322;50.858;-1.778;2024-01-25T07:50:33;21.75;;;2.8;;
22308;SDS011;11322;50.858;-1.778;2024-01-25T07:55:33;16.45;;;2.1;;
22308;SDS011;11322;50.858;-1.778;2024-01-25T08:00:33;24.75;;;3.4;;
22308;SDS011;11322;50.858;-1.778;2024-01-25T08:05:33;14.35;;;2.9;;
22308;SDS011;11322;50.858;-1.778;2024-01-25T08:10:33;13.7;;;2.9;;
22308;SDS011;11322;50.858;-1.778;2024-01-25T08:15:41;12.15;;;2.65;;
22308;SDS011;11322;50.858;-1.778;2024-01-25T08:20:39;13.0;;;3.0;;
22308;SDS011;11322;50.858;-1.778;2024-01-25T08:25:37;21.6;;;2.7;;
22308;SDS011;11322;50.858;-1.778;2024-01-25T08:30:33;22.65;;;3.25;;
22308;SDS011;11322;50.858;-1.778;2024-01-25T08:35:33;20.8;;;2.5;;
22308;SDS011;11322;50.858;-1.778;2024-01-25T08:40:33;19.3;;;2.5;;
22308;SDS011;11322;50.858;-1.778;2024-01-25T08:45:33;15.5;;;2.6;;
22308;SDS011;11322;50.858;-1.778;2024-01-25T08:50:33;18.2;;;2.65;;
22308;SDS011;11322;50.858;-1.778;2024-01-25T08:55:33;25.4;;;3.2;;
22308;SDS011;11322;50.858;-1.778;2024-01-25T09:00:33;19.95;;;3.15;;
22308;SDS011;11322;50.858;-1.778;2024-01-25T09:05:33;22.45;;;2.6;;
22308;SDS011;11322;50.858;-1.778;2024-01-25T09:10:33;17.8;;;2.15;;
22308;SDS011;11322;50.858;-1.778;2024-01-25T09:15:33;11.85;;;1.3;;
22308;SDS011;11322;50.858;-1.778;2024-01-25T09:20:33;17.35;;;2.1;;
22308;SDS011;11322;50.858;-1.778;2024-01-25T09:25:33;27.45;;;3.05;;
22308;SDS011;11322;50.858;-1.778;2024-01-25T09:30:33;24.3;;;3.55;;
22308;SDS011;11322;50.858;-1.778;2024-01-25T09:35:33;22.1;;;2.8;;
22308;SDS011;11322;50.858;-1.778;2024-01-25T09:40:33;13.0;;;2.8;;
22308;SDS011;11322;50.858;-1.778;2024-01-25T09:45:33;21.35;;;3.75;;
22308;SDS011;11322;50.858;-1.778;2024-01-25T09:50:33;22.9;;;3.3;;
22308;SDS011;11322;50.858;-1.778;2024-01-25T09:55:34;22.4;;;3.3;;
22308;SDS011;11322;50.858;-1.778;2024-01-25T10:00:33;26.2;;;4.4;;
22308;SDS011;11322;50.858;-1.778;2024-01-25T10:05:33;18.4;;;3.0;;
22308;SDS011;11322;50.858;-1.778;2024-01-25T10:10:33;11.65;;;2.3;;
22308;SDS011;11322;50.858;-1.778;2024-01-25T10:15:33;19.05;;;2.75;;
22308;SDS011;11322;50.858;-1.778;2024-01-25T10:20:33;13.4;;;3.7;;
22308;SDS011;11322;50.858;-1.778;2024-01-25T10:25:33;16.1;;;2.95;;
22308;SDS011;11322;50.858;-1.778;2024-01-25T10:30:34;21.4;;;2.8;;
22308;SDS011;11322;50.858;-1.778;2024-01-25T10:35:33;11.3;;;2.1;;
22308;SDS011;11322;50.858;-1.778;2024-01-25T10:40:33;20.5;;;2.65;;
22308;SDS011;11322;50.858;-1.778;2024-01-25T10:45:33;20.3;;;3.15;;
22308;SDS011;11322;50.858;-1.778;2024-01-25T10:50:33;13.45;;;2.5;;
22308;SDS011;11322;50.858;-1.778;2024-01-25T10:55:33;17.7;;;2.75;;
22308;SDS011;11322;50.858;-1.778;2024-01-25T11:00:33;14.45;;;2.3;;
22308;SDS011;11322;50.858;-1.778;2024-01-25T11:05:33;20.05;;;2.6;;
22308;SDS011;11322;50.858;-1.778;2024-01-25T11:10:34;14.6;;;2.2;;
22308;SDS011;11322;50.858;-1.778;2024-01-25T11:15:33;14.5;;;2.15;;
22308;SDS011;11322;50.858;-1.778;2024-01-25T11:20:34;11.05;;;2.7;;
22308;SDS011;11322;50.858;-1.778;2024-01-25T11:25:34;12.2;;;2.7;;
22308;SDS011;11322;50.858;-1.778;2024-01-25T11:30:34;7.75;;;1.3;;
22308;SDS011;11322;50.858;-1.778;2024-01-25T11:35:33;10.8;;;1.85;;
22308;SDS011;11322;50.858;-1.778;2024-01-25T11:40:33;13.05;;;2.5;;
22308;SDS011;11322;50.858;-1.778;2024-01-25T11:45:33;13.1;;;2.85;;
22308;SDS011;11322;50.858;-1.778;2024-01-25T11:50:33;12.75;;;1.55;;
22308;SDS011;11322;50.858;-1.778;2024-01-25T11:55:33;7.15;;;1.75;;
22308;SDS011;11322;50.858;-1.778;2024-01-25T12:00:33;13.4;;;2.2;;
22308;SDS011;11322;50.858;-1.778;2024-01-25T12:06:42;19.3;;;3.0;;
22308;SDS011;11322;50.858;-1.778;2024-01-25T12:10:33;6.35;;;1.55;;
22308;SDS011;11322;50.858;-1.778;2024-01-25T12:15:33;16.15;;;2.15;;
22308;SDS011;11322;50.858;-1.778;2024-01-25T12:20:33;9.55;;;2.45;;
22308;SDS011;11322;50.858;-1.778;2024-01-25T12:25:38;3.15;;;1.8;;
22308;SDS011;11322;50.858;-1.778;2024-01-25T12:30:33;11.1;;;1.45;;
22308;SDS011;11322;50.858;-1.778;2024-01-25T12:35:33;4.55;;;1.45;;
22308;SDS011;11322;50.858;-1.778;2024-01-25T12:40:38;10.6;;;2.5;;
22308;SDS011;11322;50.858;-1.778;2024-01-25T12:45:33;12.85;;;2.85;;
22308;SDS011;11322;50.858;-1.778;2024-01-25T12:50:33;6.3;;;1.6;;
22308;SDS011;11322;50.858;-1.778;2024-01-25T12:55:33;12.25;;;1.6;;
22308;SDS011;11322;50.858;-1.778;2024-01-25T13:00:33;11.7;;;2.1;;
22308;SDS011;11322;50.858;-1.778;2024-01-25T13:05:33;8.0;;;2.85;;
22308;SDS011;11322;50.858;-1.778;2024-01-25T13:10:33;12.35;;;2.05;;
22308;SDS011;11322;50.858;-1.778;2024-01-25T13:15:33;5.4;;;1.15;;
22308;SDS011;11322;50.858;-1.778;2024-01-25T13:20:33;1.65;;;0.8;;
22308;SDS011;11322;50.858;-1.778;2024-01-25T13:25:33;7.65;;;1.55;;
22308;SDS011;11322;50.858;-1.778;2024-01-25T13:30:33;5.1;;;1.15;;
22308;SDS011;11322;50.858;-1.778;2024-01-25T13:35:33;11.0;;;1.2;;
22308;SDS011;11322;50.858;-1.778;2024-01-25T13:40:33;11.55;;;1.7;;
22308;SDS011;11322;50.858;-1.778;2024-01-25T13:45:33;3.15;;;1.65;;
22308;SDS011;11322;50.858;-1.778;2024-01-25T13:50:33;8.2;;;1.7;;
22308;SDS011;11322;50.858;-1.778;2024-01-25T13:55:33;7.85;;;1.2;;
22308;SDS011;11322;50.858;-1.778;2024-01-25T14:00:33;6.75;;;0.7;;
22308;SDS011;11322;50.858;-1.778;2024-01-25T14:05:33;13.1;;;1.4;;
22308;SDS011;11322;50.858;-1.778;2024-01-25T14:10:33;10.0;;;0.95;;
22308;SDS011;11322;50.858;-1.778;2024-01-25T14:15:34;7.95;;;1.85;;
22308;SDS011;11322;50.858;-1.778;2024-01-25T14:20:33;4.15;;;1.25;;
22308;SDS011;11322;50.858;-1.778;2024-01-25T14:25:33;1.8;;;1.15;;
22308;SDS011;11322;50.858;-1.778;2024-01-25T14:30:33;5.0;;;1.2;;
22308;SDS011;11322;50.858;-1.778;2024-01-25T14:35:33;2.95;;;0.9;;
22308;SDS011;11322;50.858;-1.778;2024-01-25T14:40:33;4.65;;;1.7;;
22308;SDS011;11322;50.858;-1.778;2024-01-25T14:45:33;5.15;;;1.8;;
22308;SDS011;11322;50.858;-1.778;2024-01-25T14:50:33;6.5;;;1.7;;
22308;SDS011;11322;50.858;-1.778;2024-01-25T14:55:33;6.15;;;2.55;;
22308;SDS011;11322;50.858;-1.778;2024-01-25T15:00:33;10.45;;;2.8;;
22308;SDS011;11322;50.858;-1.778;2024-01-25T15:05:33;9.9;;;2.3;;
22308;SDS011;11322;50.858;-1.778;2024-01-25T15:10:33;10.0;;;3.15;;
22308;SDS011;11322;50.858;-1.778;2024-01-25T15:15:33;5.85;;;1.9;;
22308;SDS011;11322;50.858;-1.778;2024-01-25T15:20:33;6.25;;;1.55;;
22308;SDS011;11322;50.858;-1.778;2024-01-25T15:25:33;6.15;;;1.55;;
22308;SDS011;11322;50.858;-1.778;2024-01-25T15:30:33;7.45;;;1.35;;
22308;SDS011;11322;50.858;-1.778;2024-01-25T15:35:33;2.95;;;0.75;;
22308;SDS011;11322;50.858;-1.778;2024-01-25T15:40:33;4.85;;;1.7;;
22308;SDS011;11322;50.858;-1.778;2024-01-25T15:45:33;5.75;;;1.15;;
22308;SDS011;11322;50.858;-1.778;2024-01-25T15:50:33;9.4;;;1.8;;
22308;SDS011;11322;50.858;-1.778;2024-01-25T15:55:33;4.25;;;1.0;;
22308;SDS011;11322;50.858;-1.778;2024-01-25T16:00:33;6.75;;;2.05;;
22308;SDS011;11322;50.858;-1.778;2024-01-25T16:05:33;5.45;;;2.05;;
22308;SDS011;11322;50.858;-1.778;2024-01-25T16:10:33;3.55;;;1.7;;
22308;SDS011;11322;50.858;-1.778;2024-01-25T16:15:33;5.35;;;1.95;;
22308;SDS011;11322;50.858;-1.778;2024-01-25T16:20:33;10.6;;;2.35;;
22308;SDS011;11322;50.858;-1.778;2024-01-25T16:25:33;6.9;;;2.5;;
22308;SDS011;11322;50.858;-1.778;2024-01-25T16:30:33;8.25;;;2.6;;
22308;SDS011;11322;50.858;-1.778;2024-01-25T16:35:33;6.7;;;2.3;;
22308;SDS011;11322;50.858;-1.778;2024-01-25T16:40:33;12.3;;;2.55;;
22308;SDS011;11322;50.858;-1.778;2024-01-25T16:45:33;6.35;;;2.5;;
22308;SDS011;11322;50.858;-1.778;2024-01-25T16:50:33;2.8;;;1.35;;
22308;SDS011;11322;50.858;-1.778;2024-01-25T16:55:33;6.45;;;2.8;;
22308;SDS011;11322;50.858;-1.778;2024-01-25T17:00:33;11.4;;;2.1;;
22308;SDS011;11322;50.858;-1.778;2024-01-25T17:05:33;8.45;;;2.9;;
22308;SDS011;11322;50.858;-1.778;2024-01-25T17:10:33;11.25;;;3.55;;
22308;SDS011;11322;50.858;-1.778;2024-01-25T17:15:33;13.65;;;3.5;;
22308;SDS011;11322;50.858;-1.778;2024-01-25T17:20:33;11.8;;;2.9;;
22308;SDS011;11322;50.858;-1.778;2024-01-25T17:25:33;7.45;;;3.45;;
22308;SDS011;11322;50.858;-1.778;2024-01-25T17:30:33;13.15;;;3.3;;
22308;SDS011;11322;50.858;-1.778;2024-01-25T17:35:33;15.2;;;4.1;;
22308;SDS011;11322;50.858;-1.778;2024-01-25T17:40:33;10.45;;;3.6;;
22308;SDS011;11322;50.858;-1.778;2024-01-25T17:45:33;29.3;;;5.65;;
22308;SDS011;11322;50.858;-1.778;2024-01-25T17:50:33;26.45;;;5.45;;
22308;SDS011;11322;50.858;-1.778;2024-01-25T17:55:33;18.2;;;5.3;;
22308;SDS011;11322;50.858;-1.778;2024-01-25T18:00:33;12.4;;;4.15;;
22308;SDS011;11322;50.858;-1.778;2024-01-25T18:05:33;18.2;;;5.35;;
22308;SDS011;11322;50.858;-1.778;2024-01-25T18:10:33;9.1;;;2.75;;
22308;SDS011;11322;50.858;-1.778;2024-01-25T18:15:33;17.7;;;5.8;;
22308;SDS011;11322;50.858;-1.778;2024-01-25T18:20:33;23.8;;;3.8;;
22308;SDS011;11322;50.858;-1.778;2024-01-25T18:25:33;16.2;;;4.6;;
22308;SDS011;11322;50.858;-1.778;2024-01-25T18:30:33;12.45;;;4.25;;
22308;SDS011;11322;50.858;-1.778;2024-01-25T18:35:33;14.9;;;4.6;;
22308;SDS011;11322;50.858;-1.778;2024-01-25T18:40:33;22.7;;;6.55;;
22308;SDS011;11322;50.858;-1.778;2024-01-25T18:45:33;23.05;;;6.85;;
22308;SDS011;11322;50.858;-1.778;2024-01-25T18:50:33;22.2;;;6.95;;
22308;SDS011;11322;50.858;-1.778;2024-01-25T18:55:33;9.05;;;2.7;;
22308;SDS011;11322;50.858;-1.778;2024-01-25T19:00:33;14.05;;;5.6;;
22308;SDS011;11322;50.858;-1.778;2024-01-25T19:05:33;21.85;;;6.4;;
22308;SDS011;11322;50.858;-1.778;2024-01-25T19:10:33;14.0;;;5.8;;
22308;SDS011;11322;50.858;-1.778;2024-01-25T19:15:33;18.45;;;7.65;;
22308;SDS011;11322;50.858;-1.778;2024-01-25T19:20:33;21.2;;;7.75;;
22308;SDS011;11322;50.858;-1.778;2024-01-25T19:25:33;36.8;;;11.05;;
22308;SDS011;11322;50.858;-1.778;2024-01-25T19:30:33;18.3;;;6.3;;
22308;SDS011;11322;50.858;-1.778;2024-01-25T19:35:33;18.75;;;6.0;;
22308;SDS011;11322;50.858;-1.778;2024-01-25T19:40:33;16.9;;;6.6;;
22308;SDS011;11322;50.858;-1.778;2024-01-25T19:45:34;33.95;;;7.3;;
22308;SDS011;11322;50.858;-1.778;2024-01-25T19:50:33;22.75;;;6.15;;
22308;SDS011;11322;50.858;-1.778;2024-01-25T19:55:33;29.45;;;8.45;;
22308;SDS011;11322;50.858;-1.778;2024-01-25T20:00:33;20.2;;;7.2;;
22308;SDS011;11322;50.858;-1.778;2024-01-25T20:05:33;5.95;;;3.6;;
22308;SDS011;11322;50.858;-1.778;2024-01-25T20:10:33;20.75;;;5.5;;
22308;SDS011;11322;50.858;-1.778;2024-01-25T20:15:33;23.7;;;6.85;;
22308;SDS011;11322;50.858;-1.778;2024-01-25T20:20:33;14.65;;;4.1;;
22308;SDS011;11322;50.858;-1.778;2024-01-25T20:25:33;11.9;;;4.5;;
22308;SDS011;11322;50.858;-1.778;2024-01-25T20:30:33;25.55;;;8.25;;
22308;SDS011;11322;50.858;-1.778;2024-01-25T20:35:33;15.15;;;5.45;;
22308;SDS011;11322;50.858;-1.778;2024-01-25T20:40:33;31.4;;;7.35;;
22308;SDS011;11322;50.858;-1.778;2024-01-25T20:45:33;23.55;;;7.25;;
22308;SDS011;11322;50.858;-1.778;2024-01-25T20:50:33;15.45;;;5.65;;
22308;SDS011;11322;50.858;-1.778;2024-01-25T20:55:33;3.8;;;2.95;;
22308;SDS011;11322;50.858;-1.778;2024-01-25T21:00:33;9.5;;;4.25;;
22308;SDS011;11322;50.858;-1.778;2024-01-25T21:05:33;15.0;;;5.95;;
22308;SDS011;11322;50.858;-1.778;2024-01-25T21:10:33;12.9;;;4.9;;
22308;SDS011;11322;50.858;-1.778;2024-01-25T21:15:33;11.6;;;5.3;;
22308;SDS011;11322;50.858;-1.778;2024-01-25T21:20:33;5.25;;;2.5;;
22308;SDS011;11322;50.858;-1.778;2024-01-25T21:25:33;14.95;;;3.85;;
22308;SDS011;11322;50.858;-1.778;2024-01-25T21:30:33;15.95;;;5.8;;
22308;SDS011;11322;50.858;-1.778;2024-01-25T21:35:33;12.8;;;4.9;;
22308;SDS011;11322;50.858;-1.778;2024-01-25T21:40:33;21.5;;;5.4;;
22308;SDS011;11322;50.858;-1.778;2024-01-25T21:45:33;9.1;;;3.0;;
22308;SDS011;11322;50.858;-1.778;2024-01-25T21:50:33;13.65;;;3.35;;
22308;SDS011;11322;50.858;-1.778;2024-01-25T21:55:33;19.4;;;3.15;;
22308;SDS011;11322;50.858;-1.778;2024-01-25T22:00:33;14.6;;;3.1;;
22308;SDS011;11322;50.858;-1.778;2024-01-25T22:05:33;12.45;;;3.4;;
22308;SDS011;11322;50.858;-1.778;2024-01-25T22:10:33;17.7;;;3.75;;
22308;SDS011;11322;50.858;-1.778;2024-01-25T22:15:33;17.25;;;4.3;;
22308;SDS011;11322;50.858;-1.778;2024-01-25T22:20:33;12.65;;;2.75;;
22308;SDS011;11322;50.858;-1.778;2024-01-25T22:25:33;8.35;;;2.7;;
22308;SDS011;11322;50.858;-1.778;2024-01-25T22:30:34;13.85;;;2.75;;
22308;SDS011;11322;50.858;-1.778;2024-01-25T22:35:33;13.05;;;2.6;;
22308;SDS011;11322;50.858;-1.778;2024-01-25T22:40:33;10.85;;;2.8;;
22308;SDS011;11322;50.858;-1.778;2024-01-25T22:45:33;20.4;;;3.25;;
22308;SDS011;11322;50.858;-1.778;2024-01-25T22:50:33;12.9;;;2.0;;
22308;SDS011;11322;50.858;-1.778;2024-01-25T22:55:33;3.9;;;1.95;;
22308;SDS011;11322;50.858;-1.778;2024-01-25T23:00:33;5.65;;;2.2;;
22308;SDS011;11322;50.858;-1.778;2024-01-25T23:05:33;13.2;;;2.3;;
22308;SDS011;11322;50.858;-1.778;2024-01-25T23:10:33;10.1;;;2.2;;
22308;SDS011;11322;50.858;-1.778;2024-01-25T23:15:33;9.15;;;2.15;;
22308;SDS011;11322;50.858;-1.778;2024-01-25T23:20:33;5.55;;;2.05;;
22308;SDS011;11322;50.858;-1.778;2024-01-25T23:25:33;9.6;;;2.7;;
22308;SDS011;11322;50.858;-1.778;2024-01-25T23:30:33;7.9;;;2.2;;
22308;SDS011;11322;50.858;-1.778;2024-01-25T23:35:33;15.15;;;3.45;;
22308;SDS011;11322;50.858;-1.778;2024-01-25T23:40:33;10.35;;;2.9;;
22308;SDS011;11322;50.858;-1.778;2024-01-25T23:45:33;21.45;;;4.15;;
22308;SDS011;11322;50.858;-1.778;2024-01-25T23:50:33;9.2;;;2.85;;
22308;SDS011;11322;50.858;-1.778;2024-01-25T23:55:33;10.95;;;3.3;;
